sensor_id;sensor_type;location;lat;lon;timestamp;P1;durP1;ratioP1;P2;durP2;ratioP2
56736;SDS011;42618;51.226;4.910;2022-10-31T00:00:53;18.15;;;10.10;;
56736;SDS011;42618;51.226;4.910;2022-10-31T00:03:20;21.60;;;9.85;;
56736;SDS011;42618;51.226;4.910;2022-10-31T00:05:47;18.80;;;10.68;;
56736;SDS011;42618;51.226;4.910;2022-10-31T00:08:14;17.42;;;10.40;;
56736;SDS011;42618;51.226;4.910;2022-10-31T00:10:41;20.85;;;10.00;;
56736;SDS011;42618;51.226;4.910;2022-10-31T00:13:08;22.30;;;11.07;;
56736;SDS011;42618;51.226;4.910;2022-10-31T00:15:38;25.27;;;11.52;;
56736;SDS011;42618;51.226;4.910;2022-10-31T00:18:06;22.20;;;11.63;;
56736;SDS011;42618;51.226;4.910;2022-10-31T00:20:33;25.15;;;12.05;;
56736;SDS011;42618;51.226;4.910;2022-10-31T00:23:00;23.43;;;10.90;;
56736;SDS011;42618;51.226;4.910;2022-10-31T00:25:28;20.83;;;11.73;;
56736;SDS011;42618;51.226;4.910;2022-10-31T00:27:55;20.92;;;11.70;;
56736;SDS011;42618;51.226;4.910;2022-10-31T00:30:22;27.65;;;12.20;;
56736;SDS011;42618;51.226;4.910;2022-10-31T00:32:49;20.80;;;12.25;;
56736;SDS011;42618;51.226;4.910;2022-10-31T00:35:16;23.25;;;11.73;;
56736;SDS011;42618;51.226;4.910;2022-10-31T00:37:43;23.63;;;11.82;;
56736;SDS011;42618;51.226;4.910;2022-10-31T00:40:10;21.27;;;11.77;;
56736;SDS011;42618;51.226;4.910;2022-10-31T00:42:38;27.42;;;11.20;;
56736;SDS011;42618;51.226;4.910;2022-10-31T00:47:31;23.92;;;11.98;;
56736;SDS011;42618;51.226;4.910;2022-10-31T00:49:58;21.73;;;11.40;;
56736;SDS011;42618;51.226;4.910;2022-10-31T00:52:25;21.50;;;12.13;;
56736;SDS011;42618;51.226;4.910;2022-10-31T00:54:51;28.20;;;12.38;;
56736;SDS011;42618;51.226;4.910;2022-10-31T00:57:18;24.83;;;11.70;;
56736;SDS011;42618;51.226;4.910;2022-10-31T00:59:45;18.55;;;11.93;;
56736;SDS011;42618;51.226;4.910;2022-10-31T01:02:12;20.48;;;11.20;;
56736;SDS011;42618;51.226;4.910;2022-10-31T01:04:39;25.55;;;11.77;;
56736;SDS011;42618;51.226;4.910;2022-10-31T01:07:05;18.58;;;11.30;;
56736;SDS011;42618;51.226;4.910;2022-10-31T01:09:32;24.75;;;11.45;;
56736;SDS011;42618;51.226;4.910;2022-10-31T01:11:58;26.63;;;12.68;;
56736;SDS011;42618;51.226;4.910;2022-10-31T01:14:25;22.88;;;11.85;;
56736;SDS011;42618;51.226;4.910;2022-10-31T01:16:55;23.30;;;11.98;;
56736;SDS011;42618;51.226;4.910;2022-10-31T01:19:22;21.02;;;12.15;;
56736;SDS011;42618;51.226;4.910;2022-10-31T01:21:48;25.08;;;11.93;;
56736;SDS011;42618;51.226;4.910;2022-10-31T01:24:15;23.55;;;12.13;;
56736;SDS011;42618;51.226;4.910;2022-10-31T01:26:42;20.52;;;11.75;;
56736;SDS011;42618;51.226;4.910;2022-10-31T01:29:08;21.17;;;12.10;;
56736;SDS011;42618;51.226;4.910;2022-10-31T01:31:36;24.25;;;11.30;;
56736;SDS011;42618;51.226;4.910;2022-10-31T01:34:03;19.98;;;11.48;;
56736;SDS011;42618;51.226;4.910;2022-10-31T01:36:33;20.70;;;10.98;;
56736;SDS011;42618;51.226;4.910;2022-10-31T01:39:04;24.15;;;11.15;;
56736;SDS011;42618;51.226;4.910;2022-10-31T01:41:33;19.23;;;11.02;;
56736;SDS011;42618;51.226;4.910;2022-10-31T01:44:03;21.25;;;11.02;;
56736;SDS011;42618;51.226;4.910;2022-10-31T01:51:50;19.83;;;11.57;;
56736;SDS011;42618;51.226;4.910;2022-10-31T01:54:18;19.48;;;10.70;;
56736;SDS011;42618;51.226;4.910;2022-10-31T01:56:47;17.63;;;10.15;;
56736;SDS011;42618;51.226;4.910;2022-10-31T01:59:15;16.23;;;10.05;;
56736;SDS011;42618;51.226;4.910;2022-10-31T02:01:44;18.30;;;9.45;;
56736;SDS011;42618;51.226;4.910;2022-10-31T02:04:10;23.58;;;10.82;;
56736;SDS011;42618;51.226;4.910;2022-10-31T02:06:38;19.45;;;10.63;;
56736;SDS011;42618;51.226;4.910;2022-10-31T02:09:07;22.35;;;11.70;;
56736;SDS011;42618;51.226;4.910;2022-10-31T02:11:34;20.48;;;11.88;;
56736;SDS011;42618;51.226;4.910;2022-10-31T02:16:28;24.92;;;11.40;;
56736;SDS011;42618;51.226;4.910;2022-10-31T02:18:54;24.60;;;11.50;;
56736;SDS011;42618;51.226;4.910;2022-10-31T02:32:00;24.27;;;12.25;;
56736;SDS011;42618;51.226;4.910;2022-10-31T02:34:32;26.45;;;12.88;;
56736;SDS011;42618;51.226;4.910;2022-10-31T02:39:34;22.35;;;11.63;;
56736;SDS011;42618;51.226;4.910;2022-10-31T02:44:39;20.55;;;11.82;;
56736;SDS011;42618;51.226;4.910;2022-10-31T02:47:11;23.33;;;12.00;;
56736;SDS011;42618;51.226;4.910;2022-10-31T02:49:45;20.73;;;11.43;;
56736;SDS011;42618;51.226;4.910;2022-10-31T02:52:27;21.58;;;11.57;;
56736;SDS011;42618;51.226;4.910;2022-10-31T02:55:12;20.55;;;11.90;;
56736;SDS011;42618;51.226;4.910;2022-10-31T02:57:39;19.40;;;9.98;;
56736;SDS011;42618;51.226;4.910;2022-10-31T03:07:54;20.35;;;11.38;;
56736;SDS011;42618;51.226;4.910;2022-10-31T03:13:27;19.35;;;9.90;;
56736;SDS011;42618;51.226;4.910;2022-10-31T03:16:19;15.57;;;10.30;;
56736;SDS011;42618;51.226;4.910;2022-10-31T03:18:55;16.67;;;10.63;;
56736;SDS011;42618;51.226;4.910;2022-10-31T03:21:27;23.55;;;10.73;;
56736;SDS011;42618;51.226;4.910;2022-10-31T03:23:58;18.23;;;11.10;;
56736;SDS011;42618;51.226;4.910;2022-10-31T03:26:25;16.90;;;11.10;;
56736;SDS011;42618;51.226;4.910;2022-10-31T03:28:53;22.77;;;11.45;;
56736;SDS011;42618;51.226;4.910;2022-10-31T03:31:22;18.17;;;11.10;;
56736;SDS011;42618;51.226;4.910;2022-10-31T03:33:49;17.13;;;10.40;;
56736;SDS011;42618;51.226;4.910;2022-10-31T03:36:17;15.60;;;10.32;;
56736;SDS011;42618;51.226;4.910;2022-10-31T03:38:45;16.90;;;10.20;;
56736;SDS011;42618;51.226;4.910;2022-10-31T03:41:16;19.75;;;10.35;;
56736;SDS011;42618;51.226;4.910;2022-10-31T03:43:47;18.25;;;9.45;;
56736;SDS011;42618;51.226;4.910;2022-10-31T03:46:16;18.08;;;9.63;;
56736;SDS011;42618;51.226;4.910;2022-10-31T03:48:42;16.38;;;9.85;;
56736;SDS011;42618;51.226;4.910;2022-10-31T03:51:21;19.67;;;9.80;;
56736;SDS011;42618;51.226;4.910;2022-10-31T03:53:53;14.27;;;9.88;;
56736;SDS011;42618;51.226;4.910;2022-10-31T03:59:05;18.35;;;10.18;;
56736;SDS011;42618;51.226;4.910;2022-10-31T04:01:34;21.88;;;11.10;;
56736;SDS011;42618;51.226;4.910;2022-10-31T04:04:04;22.67;;;10.60;;
56736;SDS011;42618;51.226;4.910;2022-10-31T04:06:31;20.63;;;10.50;;
56736;SDS011;42618;51.226;4.910;2022-10-31T04:09:02;17.60;;;10.65;;
56736;SDS011;42618;51.226;4.910;2022-10-31T04:11:31;18.02;;;11.23;;
56736;SDS011;42618;51.226;4.910;2022-10-31T04:16:44;17.73;;;11.57;;
56736;SDS011;42618;51.226;4.910;2022-10-31T04:19:11;20.65;;;12.07;;
56736;SDS011;42618;51.226;4.910;2022-10-31T04:21:39;21.95;;;12.50;;
56736;SDS011;42618;51.226;4.910;2022-10-31T04:24:06;21.00;;;11.38;;
56736;SDS011;42618;51.226;4.910;2022-10-31T04:26:33;20.85;;;11.30;;
56736;SDS011;42618;51.226;4.910;2022-10-31T04:28:59;22.35;;;12.15;;
56736;SDS011;42618;51.226;4.910;2022-10-31T04:31:27;21.02;;;11.23;;
56736;SDS011;42618;51.226;4.910;2022-10-31T04:33:54;19.65;;;11.70;;
56736;SDS011;42618;51.226;4.910;2022-10-31T04:36:21;17.77;;;11.23;;
56736;SDS011;42618;51.226;4.910;2022-10-31T04:38:47;20.48;;;10.95;;
56736;SDS011;42618;51.226;4.910;2022-10-31T04:41:32;23.77;;;12.95;;
56736;SDS011;42618;51.226;4.910;2022-10-31T04:44:07;23.52;;;11.48;;
56736;SDS011;42618;51.226;4.910;2022-10-31T04:46:34;19.25;;;11.52;;
56736;SDS011;42618;51.226;4.910;2022-10-31T04:49:01;19.00;;;10.97;;
56736;SDS011;42618;51.226;4.910;2022-10-31T04:51:28;21.60;;;11.07;;
56736;SDS011;42618;51.226;4.910;2022-10-31T04:53:55;22.67;;;12.18;;
56736;SDS011;42618;51.226;4.910;2022-10-31T04:56:47;20.92;;;11.90;;
56736;SDS011;42618;51.226;4.910;2022-10-31T04:59:19;15.95;;;11.10;;
56736;SDS011;42618;51.226;4.910;2022-10-31T05:01:52;19.85;;;11.05;;
56736;SDS011;42618;51.226;4.910;2022-10-31T05:04:26;18.85;;;10.85;;
56736;SDS011;42618;51.226;4.910;2022-10-31T05:06:53;19.88;;;11.20;;
56736;SDS011;42618;51.226;4.910;2022-10-31T05:09:20;22.80;;;11.45;;
56736;SDS011;42618;51.226;4.910;2022-10-31T05:11:46;25.58;;;11.88;;
56736;SDS011;42618;51.226;4.910;2022-10-31T05:14:33;18.48;;;11.55;;
56736;SDS011;42618;51.226;4.910;2022-10-31T05:17:18;21.15;;;11.30;;
56736;SDS011;42618;51.226;4.910;2022-10-31T05:20:03;18.70;;;10.75;;
56736;SDS011;42618;51.226;4.910;2022-10-31T05:22:49;19.90;;;10.98;;
56736;SDS011;42618;51.226;4.910;2022-10-31T05:25:16;23.35;;;12.52;;
56736;SDS011;42618;51.226;4.910;2022-10-31T05:27:45;27.25;;;13.20;;
56736;SDS011;42618;51.226;4.910;2022-10-31T05:30:13;24.40;;;13.27;;
56736;SDS011;42618;51.226;4.910;2022-10-31T05:32:40;27.35;;;13.48;;
56736;SDS011;42618;51.226;4.910;2022-10-31T05:35:30;27.60;;;13.68;;
56736;SDS011;42618;51.226;4.910;2022-10-31T05:38:15;22.92;;;13.05;;
56736;SDS011;42618;51.226;4.910;2022-10-31T05:40:43;24.40;;;13.93;;
56736;SDS011;42618;51.226;4.910;2022-10-31T05:43:10;33.25;;;14.32;;
56736;SDS011;42618;51.226;4.910;2022-10-31T05:45:36;31.55;;;13.98;;
56736;SDS011;42618;51.226;4.910;2022-10-31T05:48:07;26.65;;;14.45;;
56736;SDS011;42618;51.226;4.910;2022-10-31T05:51:06;24.17;;;13.50;;
56736;SDS011;42618;51.226;4.910;2022-10-31T05:53:32;27.88;;;14.50;;
56736;SDS011;42618;51.226;4.910;2022-10-31T05:55:59;26.40;;;14.20;;
56736;SDS011;42618;51.226;4.910;2022-10-31T05:58:26;26.77;;;14.40;;
56736;SDS011;42618;51.226;4.910;2022-10-31T06:01:02;23.38;;;14.25;;
56736;SDS011;42618;51.226;4.910;2022-10-31T06:03:29;27.70;;;14.43;;
56736;SDS011;42618;51.226;4.910;2022-10-31T06:05:56;27.17;;;14.00;;
56736;SDS011;42618;51.226;4.910;2022-10-31T06:08:28;30.65;;;15.52;;
56736;SDS011;42618;51.226;4.910;2022-10-31T06:10:58;32.55;;;15.60;;
56736;SDS011;42618;51.226;4.910;2022-10-31T06:13:45;38.88;;;19.00;;
56736;SDS011;42618;51.226;4.910;2022-10-31T06:16:17;37.88;;;19.30;;
56736;SDS011;42618;51.226;4.910;2022-10-31T06:18:45;36.35;;;19.45;;
56736;SDS011;42618;51.226;4.910;2022-10-31T06:23:42;35.40;;;18.55;;
56736;SDS011;42618;51.226;4.910;2022-10-31T06:26:31;40.53;;;19.40;;
56736;SDS011;42618;51.226;4.910;2022-10-31T06:28:58;38.47;;;20.63;;
56736;SDS011;42618;51.226;4.910;2022-10-31T06:31:50;34.92;;;18.10;;
56736;SDS011;42618;51.226;4.910;2022-10-31T06:34:17;36.85;;;18.63;;
56736;SDS011;42618;51.226;4.910;2022-10-31T06:36:45;38.80;;;18.95;;
56736;SDS011;42618;51.226;4.910;2022-10-31T06:39:12;33.28;;;18.80;;
56736;SDS011;42618;51.226;4.910;2022-10-31T06:41:39;41.30;;;20.60;;
56736;SDS011;42618;51.226;4.910;2022-10-31T06:44:09;36.92;;;19.10;;
56736;SDS011;42618;51.226;4.910;2022-10-31T06:46:47;43.78;;;19.80;;
56736;SDS011;42618;51.226;4.910;2022-10-31T06:49:40;44.58;;;20.95;;
56736;SDS011;42618;51.226;4.910;2022-10-31T06:52:13;46.47;;;22.13;;
56736;SDS011;42618;51.226;4.910;2022-10-31T06:54:40;34.90;;;18.48;;
56736;SDS011;42618;51.226;4.910;2022-10-31T06:57:07;37.13;;;18.38;;
56736;SDS011;42618;51.226;4.910;2022-10-31T06:59:36;33.92;;;18.23;;
56736;SDS011;42618;51.226;4.910;2022-10-31T07:02:03;34.50;;;18.75;;
56736;SDS011;42618;51.226;4.910;2022-10-31T07:04:31;36.85;;;18.98;;
56736;SDS011;42618;51.226;4.910;2022-10-31T07:06:58;43.05;;;18.45;;
56736;SDS011;42618;51.226;4.910;2022-10-31T07:09:24;42.28;;;19.73;;
56736;SDS011;42618;51.226;4.910;2022-10-31T07:11:52;33.80;;;18.90;;
56736;SDS011;42618;51.226;4.910;2022-10-31T07:14:19;33.78;;;19.00;;
56736;SDS011;42618;51.226;4.910;2022-10-31T07:16:49;41.58;;;20.13;;
56736;SDS011;42618;51.226;4.910;2022-10-31T07:19:22;32.05;;;18.30;;
56736;SDS011;42618;51.226;4.910;2022-10-31T07:21:49;39.45;;;21.10;;
56736;SDS011;42618;51.226;4.910;2022-10-31T07:24:15;39.85;;;21.60;;
56736;SDS011;42618;51.226;4.910;2022-10-31T07:26:42;120.85;;;65.07;;
56736;SDS011;42618;51.226;4.910;2022-10-31T07:29:09;40.77;;;21.20;;
56736;SDS011;42618;51.226;4.910;2022-10-31T07:31:36;35.40;;;18.33;;
56736;SDS011;42618;51.226;4.910;2022-10-31T07:34:11;37.08;;;19.50;;
56736;SDS011;42618;51.226;4.910;2022-10-31T07:36:56;32.58;;;18.25;;
56736;SDS011;42618;51.226;4.910;2022-10-31T07:39:23;35.57;;;18.13;;
56736;SDS011;42618;51.226;4.910;2022-10-31T07:41:52;39.00;;;18.80;;
56736;SDS011;42618;51.226;4.910;2022-10-31T07:44:19;37.00;;;18.58;;
56736;SDS011;42618;51.226;4.910;2022-10-31T07:47:05;36.95;;;20.48;;
56736;SDS011;42618;51.226;4.910;2022-10-31T07:50:01;47.50;;;20.60;;
56736;SDS011;42618;51.226;4.910;2022-10-31T07:52:46;53.30;;;29.75;;
56736;SDS011;42618;51.226;4.910;2022-10-31T07:55:36;39.28;;;19.98;;
56736;SDS011;42618;51.226;4.910;2022-10-31T07:58:06;37.63;;;19.17;;
56736;SDS011;42618;51.226;4.910;2022-10-31T08:00:37;40.85;;;19.48;;
56736;SDS011;42618;51.226;4.910;2022-10-31T08:03:05;46.22;;;19.30;;
56736;SDS011;42618;51.226;4.910;2022-10-31T08:06:02;38.20;;;19.58;;
56736;SDS011;42618;51.226;4.910;2022-10-31T08:08:57;36.72;;;18.70;;
56736;SDS011;42618;51.226;4.910;2022-10-31T08:11:24;40.10;;;19.67;;
56736;SDS011;42618;51.226;4.910;2022-10-31T08:13:51;44.88;;;20.77;;
56736;SDS011;42618;51.226;4.910;2022-10-31T08:16:18;35.80;;;19.15;;
56736;SDS011;42618;51.226;4.910;2022-10-31T08:18:55;38.05;;;19.55;;
56736;SDS011;42618;51.226;4.910;2022-10-31T08:21:22;38.50;;;19.40;;
56736;SDS011;42618;51.226;4.910;2022-10-31T08:23:49;35.08;;;19.10;;
56736;SDS011;42618;51.226;4.910;2022-10-31T08:26:19;37.67;;;19.73;;
56736;SDS011;42618;51.226;4.910;2022-10-31T08:28:47;39.67;;;20.65;;
56736;SDS011;42618;51.226;4.910;2022-10-31T08:31:18;60.97;;;34.80;;
56736;SDS011;42618;51.226;4.910;2022-10-31T08:33:45;38.90;;;18.38;;
56736;SDS011;42618;51.226;4.910;2022-10-31T08:36:17;32.97;;;18.90;;
56736;SDS011;42618;51.226;4.910;2022-10-31T08:38:56;39.60;;;20.17;;
56736;SDS011;42618;51.226;4.910;2022-10-31T08:41:28;37.50;;;20.63;;
56736;SDS011;42618;51.226;4.910;2022-10-31T08:43:55;36.42;;;19.77;;
56736;SDS011;42618;51.226;4.910;2022-10-31T08:46:22;39.35;;;19.75;;
56736;SDS011;42618;51.226;4.910;2022-10-31T08:48:48;45.38;;;19.85;;
56736;SDS011;42618;51.226;4.910;2022-10-31T08:51:16;45.05;;;22.73;;
56736;SDS011;42618;51.226;4.910;2022-10-31T08:53:44;49.83;;;26.38;;
56736;SDS011;42618;51.226;4.910;2022-10-31T08:56:29;36.65;;;20.15;;
56736;SDS011;42618;51.226;4.910;2022-10-31T08:58:56;42.50;;;21.10;;
56736;SDS011;42618;51.226;4.910;2022-10-31T09:01:49;38.50;;;21.05;;
56736;SDS011;42618;51.226;4.910;2022-10-31T09:04:17;38.20;;;20.27;;
56736;SDS011;42618;51.226;4.910;2022-10-31T09:06:44;41.85;;;20.95;;
56736;SDS011;42618;51.226;4.910;2022-10-31T09:09:30;44.78;;;21.63;;
56736;SDS011;42618;51.226;4.910;2022-10-31T09:11:57;46.38;;;23.67;;
56736;SDS011;42618;51.226;4.910;2022-10-31T09:14:43;44.13;;;21.83;;
56736;SDS011;42618;51.226;4.910;2022-10-31T09:17:34;45.97;;;22.30;;
56736;SDS011;42618;51.226;4.910;2022-10-31T09:20:19;41.53;;;20.30;;
56736;SDS011;42618;51.226;4.910;2022-10-31T09:22:46;41.55;;;20.42;;
56736;SDS011;42618;51.226;4.910;2022-10-31T09:25:13;36.10;;;20.87;;
56736;SDS011;42618;51.226;4.910;2022-10-31T09:27:45;41.65;;;21.30;;
56736;SDS011;42618;51.226;4.910;2022-10-31T09:30:12;38.28;;;21.23;;
56736;SDS011;42618;51.226;4.910;2022-10-31T09:32:39;43.42;;;22.73;;
56736;SDS011;42618;51.226;4.910;2022-10-31T09:35:05;38.80;;;22.00;;
56736;SDS011;42618;51.226;4.910;2022-10-31T09:37:32;43.92;;;21.60;;
56736;SDS011;42618;51.226;4.910;2022-10-31T09:39:59;41.90;;;20.88;;
56736;SDS011;42618;51.226;4.910;2022-10-31T09:42:45;35.53;;;19.70;;
56736;SDS011;42618;51.226;4.910;2022-10-31T09:56:43;30.10;;;15.80;;
56736;SDS011;42618;51.226;4.910;2022-10-31T10:04:43;34.33;;;15.75;;
56736;SDS011;42618;51.226;4.910;2022-10-31T10:07:24;31.23;;;15.30;;
56736;SDS011;42618;51.226;4.910;2022-10-31T10:23:53;34.45;;;17.73;;
56736;SDS011;42618;51.226;4.910;2022-10-31T10:26:33;33.47;;;17.35;;
56736;SDS011;42618;51.226;4.910;2022-10-31T10:29:01;36.90;;;17.58;;
56736;SDS011;42618;51.226;4.910;2022-10-31T10:31:35;36.42;;;18.05;;
56736;SDS011;42618;51.226;4.910;2022-10-31T10:37:13;33.17;;;18.33;;
56736;SDS011;42618;51.226;4.910;2022-10-31T10:42:09;37.08;;;17.55;;
56736;SDS011;42618;51.226;4.910;2022-10-31T10:44:55;34.53;;;17.77;;
56736;SDS011;42618;51.226;4.910;2022-10-31T10:47:42;37.22;;;17.80;;
56736;SDS011;42618;51.226;4.910;2022-10-31T10:50:17;35.92;;;16.92;;
56736;SDS011;42618;51.226;4.910;2022-10-31T10:57:52;34.08;;;18.33;;
56736;SDS011;42618;51.226;4.910;2022-10-31T11:00:23;35.45;;;17.20;;
56736;SDS011;42618;51.226;4.910;2022-10-31T11:02:50;38.45;;;18.88;;
56736;SDS011;42618;51.226;4.910;2022-10-31T11:05:24;34.47;;;18.48;;
56736;SDS011;42618;51.226;4.910;2022-10-31T11:07:51;39.72;;;18.80;;
56736;SDS011;42618;51.226;4.910;2022-10-31T11:10:18;38.05;;;19.02;;
56736;SDS011;42618;51.226;4.910;2022-10-31T11:12:45;42.42;;;20.33;;
56736;SDS011;42618;51.226;4.910;2022-10-31T11:15:24;38.60;;;19.13;;
56736;SDS011;42618;51.226;4.910;2022-10-31T11:17:52;40.40;;;20.77;;
56736;SDS011;42618;51.226;4.910;2022-10-31T11:22:47;36.58;;;20.25;;
56736;SDS011;42618;51.226;4.910;2022-10-31T11:25:21;35.92;;;19.38;;
56736;SDS011;42618;51.226;4.910;2022-10-31T11:30:42;37.55;;;19.65;;
56736;SDS011;42618;51.226;4.910;2022-10-31T11:33:20;39.28;;;19.45;;
56736;SDS011;42618;51.226;4.910;2022-10-31T11:35:48;37.65;;;18.85;;
56736;SDS011;42618;51.226;4.910;2022-10-31T11:38:21;35.90;;;19.15;;
56736;SDS011;42618;51.226;4.910;2022-10-31T11:43:15;39.88;;;18.52;;
56736;SDS011;42618;51.226;4.910;2022-10-31T11:45:43;39.65;;;17.85;;
56736;SDS011;42618;51.226;4.910;2022-10-31T11:48:20;43.92;;;18.45;;
56736;SDS011;42618;51.226;4.910;2022-10-31T11:50:49;40.13;;;19.02;;
56736;SDS011;42618;51.226;4.910;2022-10-31T11:53:26;35.75;;;16.67;;
56736;SDS011;42618;51.226;4.910;2022-10-31T11:56:03;35.03;;;17.17;;
56736;SDS011;42618;51.226;4.910;2022-10-31T11:58:31;36.28;;;17.10;;
56736;SDS011;42618;51.226;4.910;2022-10-31T12:00:58;36.58;;;16.05;;
56736;SDS011;42618;51.226;4.910;2022-10-31T12:06:12;33.08;;;15.13;;
56736;SDS011;42618;51.226;4.910;2022-10-31T12:08:40;35.28;;;14.13;;
56736;SDS011;42618;51.226;4.910;2022-10-31T12:16:32;29.38;;;12.98;;
56736;SDS011;42618;51.226;4.910;2022-10-31T12:19:05;26.60;;;12.98;;
56736;SDS011;42618;51.226;4.910;2022-10-31T12:42:07;24.60;;;10.98;;
56736;SDS011;42618;51.226;4.910;2022-10-31T12:50:12;20.67;;;10.52;;
56736;SDS011;42618;51.226;4.910;2022-10-31T13:01:12;24.02;;;11.35;;
56736;SDS011;42618;51.226;4.910;2022-10-31T13:03:47;19.57;;;10.00;;
56736;SDS011;42618;51.226;4.910;2022-10-31T13:06:18;25.50;;;11.23;;
56736;SDS011;42618;51.226;4.910;2022-10-31T13:08:55;19.60;;;9.32;;
56736;SDS011;42618;51.226;4.910;2022-10-31T13:11:28;20.60;;;10.20;;
56736;SDS011;42618;51.226;4.910;2022-10-31T13:14:05;19.40;;;8.75;;
56736;SDS011;42618;51.226;4.910;2022-10-31T13:16:34;20.55;;;10.30;;
56736;SDS011;42618;51.226;4.910;2022-10-31T13:19:05;17.52;;;8.52;;
56736;SDS011;42618;51.226;4.910;2022-10-31T13:21:41;22.70;;;8.50;;
56736;SDS011;42618;51.226;4.910;2022-10-31T13:24:13;21.52;;;8.60;;
56736;SDS011;42618;51.226;4.910;2022-10-31T13:26:47;22.85;;;8.32;;
56736;SDS011;42618;51.226;4.910;2022-10-31T13:31:44;18.48;;;7.78;;
56736;SDS011;42618;51.226;4.910;2022-10-31T13:34:33;22.88;;;8.93;;
56736;SDS011;42618;51.226;4.910;2022-10-31T13:42:03;16.73;;;7.65;;
56736;SDS011;42618;51.226;4.910;2022-10-31T13:44:32;17.63;;;7.60;;
56736;SDS011;42618;51.226;4.910;2022-10-31T13:47:04;19.83;;;7.57;;
56736;SDS011;42618;51.226;4.910;2022-10-31T13:49:46;15.85;;;7.60;;
56736;SDS011;42618;51.226;4.910;2022-10-31T13:54:49;18.38;;;7.55;;
56736;SDS011;42618;51.226;4.910;2022-10-31T13:57:25;13.95;;;7.00;;
56736;SDS011;42618;51.226;4.910;2022-10-31T14:02:30;20.13;;;7.03;;
56736;SDS011;42618;51.226;4.910;2022-10-31T14:04:58;16.85;;;6.57;;
56736;SDS011;42618;51.226;4.910;2022-10-31T14:07:26;14.15;;;6.78;;
56736;SDS011;42618;51.226;4.910;2022-10-31T14:09:55;11.25;;;6.65;;
56736;SDS011;42618;51.226;4.910;2022-10-31T14:15:05;12.73;;;5.65;;
56736;SDS011;42618;51.226;4.910;2022-10-31T14:22:39;16.45;;;5.60;;
56736;SDS011;42618;51.226;4.910;2022-10-31T14:27:50;22.02;;;5.72;;
56736;SDS011;42618;51.226;4.910;2022-10-31T14:30:20;14.15;;;5.45;;
56736;SDS011;42618;51.226;4.910;2022-10-31T14:33:02;16.70;;;5.47;;
56736;SDS011;42618;51.226;4.910;2022-10-31T14:35:56;15.75;;;6.47;;
56736;SDS011;42618;51.226;4.910;2022-10-31T14:38:29;16.90;;;5.80;;
56736;SDS011;42618;51.226;4.910;2022-10-31T14:41:13;16.98;;;6.03;;
56736;SDS011;42618;51.226;4.910;2022-10-31T14:51:30;21.17;;;7.30;;
56736;SDS011;42618;51.226;4.910;2022-10-31T14:53:59;17.70;;;7.00;;
56736;SDS011;42618;51.226;4.910;2022-10-31T14:56:27;20.25;;;6.57;;
56736;SDS011;42618;51.226;4.910;2022-10-31T14:58:59;18.27;;;6.97;;
56736;SDS011;42618;51.226;4.910;2022-10-31T15:01:30;17.52;;;6.90;;
56736;SDS011;42618;51.226;4.910;2022-10-31T15:04:04;17.05;;;7.97;;
56736;SDS011;42618;51.226;4.910;2022-10-31T15:09:28;14.80;;;7.50;;
56736;SDS011;42618;51.226;4.910;2022-10-31T15:11:55;22.90;;;7.53;;
56736;SDS011;42618;51.226;4.910;2022-10-31T15:14:26;21.85;;;8.52;;
56736;SDS011;42618;51.226;4.910;2022-10-31T15:16:53;23.58;;;9.02;;
56736;SDS011;42618;51.226;4.910;2022-10-31T15:19:21;20.48;;;8.77;;
56736;SDS011;42618;51.226;4.910;2022-10-31T15:21:49;22.92;;;9.40;;
56736;SDS011;42618;51.226;4.910;2022-10-31T15:24:16;26.42;;;9.40;;
56736;SDS011;42618;51.226;4.910;2022-10-31T15:26:48;23.23;;;9.73;;
56736;SDS011;42618;51.226;4.910;2022-10-31T15:29:18;21.05;;;9.75;;
56736;SDS011;42618;51.226;4.910;2022-10-31T15:34:44;24.83;;;10.38;;
56736;SDS011;42618;51.226;4.910;2022-10-31T15:37:11;21.33;;;10.38;;
56736;SDS011;42618;51.226;4.910;2022-10-31T15:39:40;21.00;;;9.75;;
56736;SDS011;42618;51.226;4.910;2022-10-31T15:45:01;25.25;;;10.02;;
56736;SDS011;42618;51.226;4.910;2022-10-31T15:47:29;24.85;;;10.57;;
56736;SDS011;42618;51.226;4.910;2022-10-31T15:49:57;22.98;;;10.10;;
56736;SDS011;42618;51.226;4.910;2022-10-31T15:55:02;17.63;;;9.35;;
56736;SDS011;42618;51.226;4.910;2022-10-31T15:57:29;23.40;;;9.88;;
56736;SDS011;42618;51.226;4.910;2022-10-31T15:59:56;24.85;;;10.00;;
56736;SDS011;42618;51.226;4.910;2022-10-31T16:02:24;21.42;;;9.80;;
56736;SDS011;42618;51.226;4.910;2022-10-31T16:04:55;17.73;;;9.57;;
56736;SDS011;42618;51.226;4.910;2022-10-31T16:07:23;25.80;;;11.15;;
56736;SDS011;42618;51.226;4.910;2022-10-31T16:09:59;23.60;;;11.83;;
56736;SDS011;42618;51.226;4.910;2022-10-31T16:12:31;22.83;;;11.23;;
56736;SDS011;42618;51.226;4.910;2022-10-31T16:14:58;25.95;;;11.88;;
56736;SDS011;42618;51.226;4.910;2022-10-31T16:17:26;25.85;;;10.18;;
56736;SDS011;42618;51.226;4.910;2022-10-31T16:19:57;26.63;;;9.68;;
56736;SDS011;42618;51.226;4.910;2022-10-31T16:22:29;27.50;;;10.70;;
56736;SDS011;42618;51.226;4.910;2022-10-31T16:27:24;24.35;;;9.85;;
56736;SDS011;42618;51.226;4.910;2022-10-31T16:29:56;23.70;;;9.80;;
56736;SDS011;42618;51.226;4.910;2022-10-31T16:32:32;21.88;;;9.70;;
56736;SDS011;42618;51.226;4.910;2022-10-31T16:37:38;19.35;;;9.32;;
56736;SDS011;42618;51.226;4.910;2022-10-31T16:40:05;26.75;;;10.63;;
56736;SDS011;42618;51.226;4.910;2022-10-31T16:42:32;25.05;;;9.80;;
56736;SDS011;42618;51.226;4.910;2022-10-31T16:44:59;21.75;;;9.23;;
56736;SDS011;42618;51.226;4.910;2022-10-31T16:47:26;27.30;;;11.52;;
56736;SDS011;42618;51.226;4.910;2022-10-31T16:52:20;26.02;;;10.38;;
56736;SDS011;42618;51.226;4.910;2022-10-31T16:54:47;22.55;;;10.57;;
56736;SDS011;42618;51.226;4.910;2022-10-31T16:57:14;27.52;;;9.88;;
56736;SDS011;42618;51.226;4.910;2022-10-31T16:59:42;21.80;;;9.20;;
56736;SDS011;42618;51.226;4.910;2022-10-31T17:02:13;22.42;;;9.10;;
56736;SDS011;42618;51.226;4.910;2022-10-31T17:04:42;20.25;;;9.57;;
56736;SDS011;42618;51.226;4.910;2022-10-31T17:07:08;21.13;;;9.98;;
56736;SDS011;42618;51.226;4.910;2022-10-31T17:09:35;24.10;;;9.63;;
56736;SDS011;42618;51.226;4.910;2022-10-31T17:12:01;20.23;;;9.75;;
56736;SDS011;42618;51.226;4.910;2022-10-31T17:14:28;19.33;;;8.38;;
56736;SDS011;42618;51.226;4.910;2022-10-31T17:16:55;19.17;;;8.63;;
56736;SDS011;42618;51.226;4.910;2022-10-31T17:19:24;23.92;;;8.30;;
56736;SDS011;42618;51.226;4.910;2022-10-31T17:21:51;23.15;;;9.73;;
56736;SDS011;42618;51.226;4.910;2022-10-31T17:24:17;23.95;;;9.23;;
56736;SDS011;42618;51.226;4.910;2022-10-31T17:26:44;27.50;;;9.45;;
56736;SDS011;42618;51.226;4.910;2022-10-31T17:29:10;19.55;;;9.50;;
56736;SDS011;42618;51.226;4.910;2022-10-31T17:31:37;20.05;;;9.93;;
56736;SDS011;42618;51.226;4.910;2022-10-31T17:34:04;17.13;;;8.98;;
56736;SDS011;42618;51.226;4.910;2022-10-31T17:36:32;25.27;;;10.30;;
56736;SDS011;42618;51.226;4.910;2022-10-31T17:38:59;22.15;;;9.10;;
56736;SDS011;42618;51.226;4.910;2022-10-31T17:41:25;16.60;;;9.02;;
56736;SDS011;42618;51.226;4.910;2022-10-31T17:43:55;21.58;;;9.70;;
56736;SDS011;42618;51.226;4.910;2022-10-31T17:46:21;21.90;;;9.48;;
56736;SDS011;42618;51.226;4.910;2022-10-31T17:48:48;16.85;;;9.13;;
56736;SDS011;42618;51.226;4.910;2022-10-31T17:51:15;21.98;;;9.25;;